メヘラーバード国際空港(テヘラン)の過去48時間の天気

メヘラーバード国際空港(テヘラン) (Tehran-Mehrabad)

現在時刻: 9/17 15:49 +0430 (9/17 11:19 UTC) 以下の時間は現地時間です。

過去48時間のMETAR気象情報
時間 風向 風速(m/s) 視程 気温(℃) 湿度(%) 気圧(hPa) 天気現象
17 15:30 東南東 3 10km以上 33 12 1017
17 15:00 4 10km以上 33 12 1017
17 14:30 南南西 2 10km以上 33 12 1018
17 14:00 北北東 2 10km以上 32 12 1018
17 13:30 南東 2 10km以上 32 13 1019
17 13:00 南東 2 10km以上 31 14 1019
17 12:30 3 10km以上 31 14 1020
17 12:00 東南東 4 10km以上 31 14 1020
17 11:30 南南東 3 10km以上 31 14 1020
17 11:00 南南東 4 10km以上 30 14 1021
17 10:30 東南東 3 10km以上 30 14 1021
17 10:00 東南東 2 10km以上 30 13 1021
17 09:30 静穏 0 10km以上 29 15 1021
17 09:00 静穏 0 10km以上 28 19 1021
17 08:30 静穏 0 10km以上 26 24 1021
17 08:00 2 10km以上 24 31 1020
17 07:30 2 10km以上 23 33 1020
17 07:00 2 10km以上 22 33 1020
17 06:30 2 10km以上 22 31 1020
17 06:00 静穏 0 10km以上 23 27 1019
17 05:30 北北東 2 10km以上 23 25 1019
17 05:00 北北東 2 10km以上 23 25 1019
17 04:30 2 10km以上 24 22 1019
17 04:00 北北西 2 10km以上 24 24 1019
17 03:30 北北西 2 10km以上 25 21 1019
17 03:00 静穏 0 10km以上 24 27 1020
17 02:30 北北西 2 10km以上 24 29 1020
17 02:00 北北東 2 10km以上 24 27 1020
17 01:30 3 10km以上 25 26 1020
17 01:00 3 10km以上 24 29 1020
17 00:30 北北西 2 10km以上 25 26 1020
17 00:00 2 10km以上 25 26 1020
16 23:30 2 10km以上 26 23 1020
16 23:00 北北東 3 10km以上 27 21 1020
16 22:30 北北東 3 10km以上 27 21 1020
16 22:00 東北東 2 10km以上 27 20 1020
16 21:30 2 10km以上 29 16 1020
16 21:00 南東 3 10km以上 29 16 1019
16 20:30 東南東 4 10km以上 29 16 1019
16 20:00 3 10km以上 29 18 1019
16 19:30 2 10km以上 30 15 1019
16 19:00 南東 4 10km以上 30 14 1019
16 18:30 南東 4 10km以上 31 14 1019
16 18:00 南東 5 10km以上 31 13 1019
16 17:30 南南東 3 10km以上 31 13 1019
16 17:00 東南東 4 10km以上 31 15 1019
16 16:30 南東 4 10km以上 31 16 1020
16 16:00 4 10km以上 32 14 1020
16 15:30 南南東 3 10km以上 31 15 1020
16 15:00 東南東 3 10km以上 31 16 1021
16 14:30 東南東 3 10km以上 31 16 1021
16 14:00 4 10km以上 30 18 1021
16 13:30 3 10km以上 30 17 1022
16 13:00 南東 3 10km以上 29 19 1022
16 12:30 3 10km以上 29 19 1022
16 12:00 南東 4 10km以上 29 19 1022
16 11:30 南東 5 10km以上 28 19 1023
16 11:00 4 10km以上 28 20 1023
16 10:30 南南東 2 10km以上 28 20 1023
16 10:00 南南東 3 10km以上 28 20 1023
16 09:30 南南東 2 10km以上 27 21 1023
16 09:00 南東 2 10km以上 27 23 1022
16 08:30 静穏 0 10km以上 25 32 1022
16 08:00 静穏 0 10km以上 24 36 1022
16 07:30 2 10km以上 21 46 1022
16 07:00 2 10km以上 21 43 1022
16 06:30 静穏 0 10km以上 21 40 1022
16 06:00 静穏 0 10km以上 21 40 1021
16 05:30 3 10km以上 22 38 1021
16 05:00 北北東 2 10km以上 22 38 1021
16 04:30 北北東 2 10km以上 23 36 1021
16 04:00 北北東 2 10km以上 23 36 1021
16 03:30 北東 2 10km以上 24 31 1021
16 03:00 北東 3 10km以上 23 36 1021
16 02:30 北北東 2 10km以上 22 41 1021
16 02:00 2 10km以上 23 38 1021
16 01:30 南南東 2 10km以上 23 33 1021
16 01:00 2 10km以上 24 34 1021
16 00:30 北北東 2 10km以上 24 34 1020
16 00:00 北東 2 10km以上 24 36 1020
15 23:30 2 10km以上 24 36 1020
15 23:00 2 10km以上 24 36 1020
15 22:30 2 10km以上 24 36 1021
15 22:00 静穏 0 10km以上 24 34 1020
15 21:30 静穏 0 10km以上 25 30 1020
15 21:00 静穏 0 10km以上 27 24 1020
15 20:30 南東 3 10km以上 27 24 1019
15 20:00 2 10km以上 28 22 1019
15 19:30 南南西 3 10km以上 28 22 1019
15 19:00 西南西 3 10km以上 28 22 1019
15 18:30 南南西 3 10km以上 29 20 1019
15 18:00 南南西 2 10km以上 29 20 1019
15 17:30 南南東 2 10km以上 29 19 1019
15 17:00 南南東 2 10km以上 29 20 1019
15 16:30 西 4 10km以上 29 20 1019
15 16:00 西 3 10km以上 29 22 1019
OIII 171100Z 12006KT 9999 FEW040 SCT200 33/M00 Q1017 A3004 NOSIG
OIII 171030Z 17008KT 9999 FEW040 33/M00 Q1017 A3006
OIII 171000Z 21004KT 9999 FEW040 33/M00 Q1018 A3007 NOSIG
OIII 170930Z 03004KT 9999 FEW040 32/M01 Q1018 A3008
OIII 170900Z 14004KT 9999 FEW040 32/M00 Q1019 A3010
OIII 170830Z 14004KT 9999 FEW040 SCT200 31/M00 Q1019 A3011
OIII 170800Z 17006KT 9999 FEW040 SCT200 31/00 Q1020 A3012
OIII 170730Z 12008KT CAVOK 31/00 Q1020 A3013
OIII 170700Z 16006KT CAVOK 31/00 Q1020 A3014
OIII 170630Z 15008KT CAVOK 30/M00 Q1021 A3015
OIII 170600Z 12006KT CAVOK 30/00 Q1021 A3016
OIII 170530Z 11004KT CAVOK 30/M01 Q1021 A3015
OIII 170500Z 00000KT CAVOK 29/M00 Q1021 A3015 NOSIG
OIII 170430Z 00000KT CAVOK 28/02 Q1021 A3015
OIII 170400Z 00000KT CAVOK 26/04 Q1021 A3015
OIII 170330Z 35004KT CAVOK 24/06 Q1020 A3014 NOSIG
OIII 170300Z 36004KT CAVOK 23/06 Q1020 A3013
OIII 170230Z 36004KT CAVOK 22/05 Q1020 A3012
OIII 170200Z 36004KT CAVOK 22/04 Q1020 A3012 NOSIG
OIII 170130Z 00000KT CAVOK 23/03 Q1019 A3011
OIII 170100Z 03004KT CAVOK 23/02 Q1019 A3011 NOSIG
OIII 170030Z 03004KT CAVOK 23/02 Q1019 A3011
OIII 170000Z 36004KT CAVOK 24/01 Q1019 A3011 NOSIG
OIII 162330Z 33004KT CAVOK 24/02 Q1019 A3012
OIII 162300Z 33004KT CAVOK 25/01 Q1019 A3012 NOSIG
OIII 162230Z 00000KT CAVOK 24/04 Q1020 A3013
OIII 162200Z 33004KT CAVOK 24/05 Q1020 A3013 NOSIG
OIII 162130Z 03004KT 9999 FEW100 24/04 Q1020 A3014
OIII 162100Z 36006KT 9999 FEW100 25/04 Q1020 A3014 NOSIG
OIII 162030Z 36006KT 9999 FEW100 24/05 Q1020 A3014
OIII 162000Z 33004KT 9999 FEW100 25/04 Q1020 A3014 NOSIG
OIII 161930Z 36004KT 9999 FEW100 25/04 Q1020 A3015
OIII 161900Z 36004KT 9999 FEW100 26/03 Q1020 A3015 NOSIG
OIII 161830Z 03006KT 9999 FEW100 27/03 Q1020 A3014
OIII 161800Z 03006KT 9999 FEW100 27/03 Q1020 A3014
OIII 161730Z 06004KT 9999 FEW100 27/02 Q1020 A3013
OIII 161700Z 09004KT 9999 FEW100 29/01 Q1020 A3013 NOSIG
OIII 161630Z 14006KT 9999 FEW100 29/01 Q1019 A3012
OIII 161600Z 12008KT 9999 FEW100 29/01 Q1019 A3012 NOSIG
OIII 161530Z 09006KT 9999 FEW100 29/02 Q1019 A3011
OIII 161500Z 09004KT 9999 FEW100 30/01 Q1019 A3011 NOSIG
OIII 161430Z 13008KT 9999 FEW100 30/00 Q1019 A3011
OIII 161400Z 13008KT 9999 FEW100 31/00 Q1019 A3011 NOSIG
OIII 161330Z 13010KT CAVOK 31/M01 Q1019 A3011
OIII 161300Z 15006KT CAVOK 31/M01 Q1019 A3012 NOSIG
OIII 161230Z 12008KT CAVOK 31/01 Q1019 A3012
OIII 161200Z 14008KT 9999 FEW040 31/02 Q1020 A3013 NOSIG
OIII 161130Z 08008KT 9999 FEW040 32/01 Q1020 A3013
OIII 161100Z 16006KT 9999 FEW040 31/01 Q1020 A3014 NOSIG
OIII 161030Z 12006KT 9999 FEW040 31/02 Q1021 A3015
OIII 161000Z 12006KT 9999 FEW040 31/02 Q1021 A3017 NOSIG
OIII 160930Z 10008KT 9999 FEW040 30/03 Q1021 A3017
OIII 160900Z 10006KT 9999 FEW040 30/02 Q1022 A3018
OIII 160830Z 14006KT CAVOK 29/03 Q1022 A3020
OIII 160800Z 18006KT CAVOK 29/03 Q1022 A3020
OIII 160730Z 14008KT CAVOK 29/03 Q1022 A3020
OIII 160700Z 14010KT CAVOK 28/02 Q1023 A3021 NOSIG
OIII 160630Z 17008KT CAVOK 28/03 Q1023 A3022
OIII 160600Z 15004KT CAVOK 28/03 Q1023 A3022
OIII 160530Z 16006KT CAVOK 28/03 Q1023 A3022
OIII 160500Z 15004KT CAVOK 27/03 Q1023 A3021 NOSIG
OIII 160430Z 13004KT CAVOK 27/04 Q1022 A3020
OIII 160400Z 00000KT CAVOK 25/07 Q1022 A3020 NOSIG
OIII 160330Z 00000KT CAVOK 24/08 Q1022 A3020
OIII 160300Z 36004KT CAVOK 21/09 Q1022 A3019 NOSIG
OIII 160230Z 35004KT CAVOK 21/08 Q1022 A3018
OIII 160200Z 00000KT CAVOK 21/07 Q1022 A3018
OIII 160130Z 00000KT CAVOK 21/07 Q1021 A3017
OIII 160100Z 35006KT CAVOK 22/07 Q1021 A3016
OIII 160030Z 03004KT CAVOK 22/07 Q1021 A3016
OIII 160000Z 03004KT CAVOK 23/07 Q1021 A3016 NOSIG
OIII 152330Z 03004KT CAVOK 23/07 Q1021 A3016
OIII 152300Z 05004KT CAVOK 24/06 Q1021 A3016 NOSIG
OIII 152230Z 04006KT CAVOK 23/07 Q1021 A3015
OIII 152200Z 03004KT CAVOK 22/08 Q1021 A3016 NOSIG
OIII 152130Z 01004KT CAVOK 23/08 Q1021 A3016
OIII 152100Z 16004KT CAVOK 23/06 Q1021 A3016
OIII 152030Z 01004KT CAVOK 24/07 Q1021 A3015
OIII 152000Z 03004KT CAVOK 24/07 Q1020 A3015 NOSIG
OIII 151930Z 05004KT CAVOK 24/08 Q1020 A3015
OIII 151900Z 36004KT CAVOK 24/08 Q1020 A3015 NOSIG
OIII 151830Z 35004KT CAVOK 24/08 Q1020 A3015
OIII 151800Z 36004KT CAVOK 24/08 Q1021 A3015
OIII 151730Z 00000KT CAVOK 24/07 Q1020 A3015
OIII 151700Z 00000KT CAVOK 25/06 Q1020 A3014 NOSIG
OIII 151630Z 00000KT CAVOK 27/05 Q1020 A3014
OIII 151600Z 14006KT CAVOK 27/05 Q1019 A3012
OIII 151530Z 19004KT CAVOK 28/04 Q1019 A3011
OIII 151500Z 21006KT CAVOK 28/04 Q1019 A3010 NOSIG
OIII 151430Z 24006KT CAVOK 28/04 Q1019 A3010
OIII 151400Z 21006KT CAVOK 29/04 Q1019 A3010 NOSIG
OIII 151330Z 21004KT CAVOK 29/04 Q1019 A3009
OIII 151300Z 15004KT CAVOK 29/03 Q1019 A3009 NOSIG
OIII 151230Z 15004KT 9999 FEW035 29/04 Q1019 A3010
OIII 151200Z 27008KT 9999 FEW035 29/04 Q1019 A3010
OIII 151130Z 27006KT 9999 FEW035 29/05 Q1019 A3010